Jacksonville, NC

12:17 AM EDT am 24. März 2017 (GMT -0400)
Williams Farm | | Change Station
aktive Warnung: Frost Advisory

Höhe 20 ft 34.77 °N, 77.45 °W | Updated 4 seconds ago

Heiter
Heiter
36.9 °F
gefühlte 37 °F
N
0.0
Wind Wechselnd Wind aus Nord-Nordost
Gusts 0.0 mph

Heute
Max. -- | schwach -- °F
--% Regenrisiko
Gestern
Max. -- | schwach -- °F
Precip. -- inch
Druck 30.58 inch
Sichtweite 10.0 Meilen
Wolken Heiter
Windchill 37 °F
Taupunkt 32 °F
Feuchtigkeit 81%
Regen 0.00 inch
Schneehöhe Nicht verfügbar..
7:07 AM 7:24 PM
Letztes Viertel, 18% visible
METAR KNCA 240356Z AUTO 05005KT 10SM CLR 04/01 A3058 RMK AO2 SLP356 T00440006
Druck 30.58 inch
Sichtweite 10.0 Meilen
Wolken Heiter
Windchill 37 °F
Taupunkt 32 °F
Feuchtigkeit 81%
Regen 0.00 inch
Schneehöhe Nicht verfügbar..
7:07 AM 7:24 PM
Letztes Viertel, 18% visible
METAR KNCA 240356Z AUTO 05005KT 10SM CLR 04/01 A3058 RMK AO2 SLP356 T00440006

Get Your Daily Forecast Email!

Thanks for signing up!

Be on the lookout for a verification email in your inbox.

You'll start receiving severe weather alerts in your inbox..

×

10-Day Weather Forecast

Almanac

Astronomie

Mar. 24, 2017 Aufgang Untergang
Genaue Zeit
Bürgerliche Dämmerung
Nautische Dämmerung
Astronomische Dämmerung
Mond
Länge des sichtbaren Lichts
Tageslänge
Tomorrow will be .
, % of the Moon is Illuminated

Heutige Rekorde

State Highs State Lows

Community

WunderPhotos

Upload Photos

1,962,540 Fotos hochgeladen!

WunderBlog® & News

Nearby

Luftqualität

  Luftqualität LQ Index Schadstoff
Not available.

Schneehöhe

Station Depth Höhe

Erdbebenaktivität

Stadt Distance Mag. Time & Date
Minimum magnitude displayed is 2.5.

Erdbebenaktivität

Stadt Distance Mag. Time & Date
Minimum magnitude displayed is 2.5.

küstennahe Wassertemperaturen

Ort Temperatur

Stations

Wetterstationen in der Umgebung

Stationsstandort Temp. Windchill Taupunkt Feuchtigkeit Wind Precip. Höhe Aktualisiert Art
                   

Watches & Warnings

Frost Advisory
Issued: 15:36 EDT Mar. 23, 2017 – National Weather Service

... Frost advisory in effect from 3 am to 9 am EDT Friday...

The National Weather Service in Newport/Morehead City has issued
a frost advisory, which is in effect from 3 am to 9 am EDT
Friday.

* Temperatures... in the mid 30s.

* Timing... late tonight into early Friday morning.

* Impacts... areas of frost could damage sensitive plants if not
protected.

Precautionary/preparedness actions...

A frost advisory means that widespread frost is expected.
Sensitive outdoor plants may be killed if left uncovered.